Cold Bay, AK

5:01 PM AKDT on August 27, 2016 (GMT -0800)
Cold Bay | | Change Station

Elev 102 ft 55.22 °N, 162.73 °W | Updated 8 minutes ago

Scattered Clouds
Scattered Clouds
70 °F
Feels Like 70 °F
N
7
Wind Variable Wind from ESE

Today
High -- | Low -- °F
--% Chance of Precip.
Yesterday
High -- | Low -- °F
Precip. -- in
Pressure 30.27 in
Visibility 10.0 miles
Clouds Few 300 ft
Few 5000 ft
Scattered Clouds 20000 ft
Dew Point 57 °F
Humidity 63%
Rainfall 0.00 in
Snow Depth Not available.
7:48 AM 9:54 PM
Waning Crescent, 20% visible
METAR PACD 280053Z 11006KT 10SM FEW003 FEW050 SCT200 21/14 A3026 RMK SLP248 T02110139 VIA AUTODIAL
Pressure 30.27 in
Visibility 10.0 miles
Clouds Few 300 ft
Few 5000 ft
Scattered Clouds 20000 ft
Dew Point 57 °F
Humidity 63%
Rainfall 0.00 in
Snow Depth Not available.
7:48 AM 9:54 PM
Waning Crescent, 20% visible
METAR PACD 280053Z 11006KT 10SM FEW003 FEW050 SCT200 21/14 A3026 RMK SLP248 T02110139 VIA AUTODIAL

10-Day Weather Forecast

Almanac

Astronomy

Aug. 27, 2016 Rise Set
Actual Time
Civil Twilight
Nautical Twilight
Astronomical Twilight
Moon
Length of Visible Light
Length of Day
Tomorrow will be .
, % of the Moon is Illuminated

Today's Extremes

State Highs State Lows

Community

WunderPhotos

Upload Photos

1,935,479 photos uploaded!

WunderBlog® & News

Nearby

Air Quality

  Air Quality AQ Index Pollutant
Not available.

Snow Depth

Station Depth Elevation

Earthquake Activity

City Distance Mag. Time & Date
Minimum magnitude displayed is 2.5.

Coastal Water Temperatures

Place Temperature

Stations

Nearby Weather Stations

Station Location Temp. Windchill Dew Point Humidity Wind Precip. Elev Updated Type
                   

Watches & Warnings

There are currently no watches in effect.